Time;durP1;ratioP1;P1;durP2;ratioP2;P2;SDS_P1;SDS_P2;PMS_P1;PMS_P2;Temp;Humidity;BMP_temperature;BMP_pressure;BME280_temperature;BME280_humidity;BME280_pressure;Samples;Min_cycle;Max_cycle;Signal;HPM_P1;HPM_P2
2022/01/11 00:01:47;;;;;;;3.50;2.93;;;;;;;;;;4927465;29;20135;-96
2022/01/11 00:04:16;;;;;;;5.32;3.25;;;;;;;;;;4928868;29;20044;-95
2022/01/11 00:06:48;;;;;;;10.50;3.17;;;;;;;;;;4932465;29;20037;-96
2022/01/11 00:09:21;;;;;;;16.92;4.13;;;;;;;;;;4931013;29;20115;-96
2022/01/11 00:11:50;;;;;;;7.43;2.63;;;;;;;;;;4937200;29;20074;-96
2022/01/11 00:14:18;;;;;;;6.13;3.63;;;;;;;;;;4912954;29;20059;-95
2022/01/11 00:16:50;;;;;;;5.50;3.75;;;;;;;;;;4934598;29;20058;-96
2022/01/11 00:19:17;;;;;;;8.10;3.83;;;;;;;;;;4911891;29;20036;-96
2022/01/11 00:21:46;;;;;;;10.20;3.97;;;;;;;;;;4918151;29;20047;-96
2022/01/11 00:24:33;;;;;;;6.15;3.03;;;;;;;;;;4929573;29;20027;-95
2022/01/11 00:26:59;;;;;;;8.57;2.88;;;;;;;;;;4931978;29;20036;-95
2022/01/11 00:29:25;;;;;;;12.15;3.50;;;;;;;;;;4929402;29;20445;-96
2022/01/11 00:31:52;;;;;;;12.52;3.53;;;;;;;;;;4917553;29;20540;-96
2022/01/11 00:34:20;;;;;;;5.80;2.70;;;;;;;;;;4932637;29;20036;-96
2022/01/11 00:36:46;;;;;;;8.52;3.25;;;;;;;;;;4931465;29;20032;-96
2022/01/11 00:39:12;;;;;;;9.30;4.10;;;;;;;;;;4929042;29;20032;-96
2022/01/11 00:41:39;;;;;;;8.68;3.42;;;;;;;;;;4929200;29;20491;-95
2022/01/11 00:44:06;;;;;;;6.07;3.77;;;;;;;;;;4929046;29;20050;-96
2022/01/11 00:46:32;;;;;;;4.70;2.93;;;;;;;;;;4927022;29;20028;-96
2022/01/11 00:48:58;;;;;;;7.25;3.70;;;;;;;;;;4931455;29;20040;-95
2022/01/11 00:51:26;;;;;;;12.98;3.17;;;;;;;;;;4937430;29;20028;-96
2022/01/11 00:53:52;;;;;;;3.60;2.75;;;;;;;;;;4933989;29;20031;-96
2022/01/11 00:56:18;;;;;;;5.45;3.83;;;;;;;;;;4933408;29;20441;-96
2022/01/11 00:58:47;;;;;;;6.90;3.88;;;;;;;;;;4928273;29;20035;-96
2022/01/11 01:01:13;;;;;;;6.35;3.33;;;;;;;;;;4924357;29;20036;-96
2022/01/11 01:03:39;;;;;;;9.68;4.38;;;;;;;;;;4934418;29;20496;-96
2022/01/11 01:06:05;;;;;;;6.90;4.25;;;;;;;;;;4928162;29;20036;-96
2022/01/11 01:08:31;;;;;;;5.57;2.75;;;;;;;;;;4928023;29;20028;-96
2022/01/11 01:10:58;;;;;;;6.68;3.85;;;;;;;;;;4922590;29;20039;-96
2022/01/11 01:13:27;;;;;;;5.80;4.03;;;;;;;;;;4925884;29;20032;-96
2022/01/11 01:15:55;;;;;;;8.98;4.45;;;;;;;;;;4921021;29;20074;-96
2022/01/11 01:18:24;;;;;;;8.98;4.20;;;;;;;;;;4927105;29;20253;-96
2022/01/11 01:20:53;;;;;;;8.27;2.75;;;;;;;;;;4921226;29;20487;-96
2022/01/11 01:23:21;;;;;;;4.22;2.47;;;;;;;;;;4927012;29;20035;-96
2022/01/11 01:25:48;;;;;;;5.45;3.80;;;;;;;;;;4933148;29;20035;-95
2022/01/11 01:28:15;;;;;;;4.65;2.75;;;;;;;;;;4927149;29;20040;-96
2022/01/11 01:30:43;;;;;;;7.97;2.73;;;;;;;;;;4928891;29;20127;-96
2022/01/11 01:33:10;;;;;;;2.83;2.22;;;;;;;;;;4917652;29;20284;-96
2022/01/11 01:35:46;;;;;;;8.10;2.25;;;;;;;;;;4926897;29;20024;-96
2022/01/11 01:38:12;;;;;;;5.82;3.20;;;;;;;;;;4921982;29;20067;-96
2022/01/11 01:40:45;;;;;;;5.50;2.60;;;;;;;;;;4926845;29;20516;-96
2022/01/11 01:43:14;;;;;;;3.75;2.88;;;;;;;;;;4917196;29;20044;-96
2022/01/11 01:45:44;;;;;;;10.07;4.18;;;;;;;;;;4919487;29;20039;-96
2022/01/11 01:48:13;;;;;;;8.63;3.47;;;;;;;;;;4931350;29;20035;-96
2022/01/11 01:50:40;;;;;;;4.00;2.47;;;;;;;;;;4921959;29;20020;-96
2022/01/11 01:53:10;;;;;;;3.95;3.25;;;;;;;;;;4933863;29;20107;-96
2022/01/11 01:55:43;;;;;;;12.95;4.00;;;;;;;;;;4928728;29;20126;-96
2022/01/11 01:58:15;;;;;;;8.77;3.05;;;;;;;;;;4926971;29;20024;-95
2022/01/11 02:00:50;;;;;;;4.45;2.95;;;;;;;;;;4927246;29;20032;-96
2022/01/11 02:03:25;;;;;;;9.70;3.85;;;;;;;;;;4923173;29;20123;-96
2022/01/11 02:05:55;;;;;;;11.13;3.63;;;;;;;;;;4926946;29;20035;-96
2022/01/11 02:08:26;;;;;;;28.02;4.60;;;;;;;;;;4928017;29;20126;-96
2022/01/11 02:10:57;;;;;;;12.50;4.50;;;;;;;;;;4925652;29;20397;-96
2022/01/11 02:13:26;;;;;;;10.88;3.33;;;;;;;;;;4925549;29;20043;-96
2022/01/11 02:15:53;;;;;;;8.20;3.60;;;;;;;;;;4911466;29;20100;-96
2022/01/11 02:18:25;;;;;;;8.23;3.58;;;3.70;89.10;;;;;;4927208;29;20055;-96
2022/01/11 02:20:56;;;;;;;5.78;3.15;;;;;;;;;;4905855;29;20055;-96
2022/01/11 02:23:27;;;;;;;12.48;3.63;;;;;;;;;;4925135;29;20063;-95
2022/01/11 02:25:55;;;;;;;4.07;2.58;;;;;;;;;;4930193;29;20059;-96
2022/01/11 02:28:23;;;;;;;4.82;2.70;;;;;;;;;;4925691;29;20032;-95
2022/01/11 02:30:49;;;;;;;3.60;2.60;;;;;;;;;;4912661;29;20023;-95
2022/01/11 02:33:27;;;;;;;7.22;3.60;;;;;;;;;;4922602;29;20043;-95
2022/01/11 02:35:53;;;;;;;7.45;4.22;;;;;;;;;;4921309;29;20024;-96
2022/01/11 02:38:19;;;;;;;7.00;3.85;;;;;;;;;;4925328;29;20129;-95
2022/01/11 02:40:46;;;;;;;4.35;3.40;;;;;;;;;;4923625;29;20047;-96
2022/01/11 02:43:12;;;;;;;;;;;4.10;88.50;;;;;;4927944;29;20494;-96
2022/01/11 02:45:38;;;;;;;7.05;2.83;;;;;;;;;;4924960;29;19910;-95
2022/01/11 02:48:04;;;;;;;6.63;3.65;;;;;;;;;;4906059;29;20028;-96
2022/01/11 02:50:32;;;;;;;4.97;2.75;;;;;;;;;;4906917;29;20402;-96
2022/01/11 02:52:57;;;;;;;;;;;3.80;89.00;;;;;;4930897;29;20027;-95
2022/01/11 02:55:25;;;;;;;5.35;2.47;;;;;;;;;;4905698;29;19911;-96
2022/01/11 02:57:52;;;;;;;7.15;3.25;;;;;;;;;;4924064;29;20048;-96
2022/01/11 03:00:19;;;;;;;;;;;4.20;88.10;;;;;;4933591;29;20155;-95
2022/01/11 03:02:46;;;;;;;5.82;3.03;;;;;;;;;;4908793;29;19998;-96
2022/01/11 03:05:13;;;;;;;5.15;2.78;;;;;;;;;;4931313;29;20050;-96
2022/01/11 03:07:39;;;;;;;7.13;2.83;;;;;;;;;;4926729;29;20016;-96
2022/01/11 03:12:55;;;;;;;4.88;2.45;;;;;;;;;;4928734;29;20130;-96
2022/01/11 03:15:21;;;;;;;3.40;2.20;;;;;;;;;;4921330;29;20507;-96
2022/01/11 03:17:47;;;;;;;2.92;2.30;;;;;;;;;;4919586;29;20621;-96
2022/01/11 03:20:13;;;;;;;4.25;2.55;;;;;;;;;;4922338;29;20102;-96
2022/01/11 03:22:39;;;;;;;6.00;3.75;;;;;;;;;;4917433;29;20044;-96
2022/01/11 03:25:06;;;;;;;5.90;3.05;;;;;;;;;;4925143;29;20558;-96
2022/01/11 03:27:32;;;;;;;4.78;3.17;;;;;;;;;;4928274;29;20036;-96
2022/01/11 03:29:58;;;;;;;5.65;2.97;;;;;;;;;;4928549;29;20024;-96
2022/01/11 03:32:25;;;;;;;9.43;2.78;;;;;;;;;;4906642;29;20513;-96
2022/01/11 03:34:51;;;;;;;7.25;3.03;;;;;;;;;;4934858;29;20032;-96
2022/01/11 03:37:20;;;;;;;7.68;3.38;;;;;;;;;;4928423;29;20036;-96
2022/01/11 03:39:47;;;;;;;5.65;3.75;;;;;;;;;;4932037;29;20040;-96
2022/01/11 03:42:13;;;;;;;4.78;3.08;;;;;;;;;;4931654;29;20040;-96
2022/01/11 03:44:40;;;;;;;7.65;3.28;;;;;;;;;;4920959;29;20041;-95
2022/01/11 03:47:06;;;;;;;6.43;3.53;;;;;;;;;;4920154;29;20055;-96
2022/01/11 03:49:33;;;;;;;7.15;3.05;;;;;;;;;;4928028;29;20114;-95
2022/01/11 03:51:59;;;;;;;7.45;3.50;;;;;;;;;;4930851;29;20040;-96
2022/01/11 03:54:30;;;;;;;6.82;4.82;;;4.50;86.90;;;;;;4929441;29;20036;-96
2022/01/11 03:56:56;;;;;;;4.93;3.15;;;;;;;;;;4924722;29;20118;-96
2022/01/11 03:59:22;;;;;;;5.03;2.63;;;;;;;;;;4928629;29;20028;-96
2022/01/11 04:01:51;;;;;;;7.63;4.97;;;;;;;;;;4925420;29;20047;-96
2022/01/11 04:04:19;;;;;;;7.50;3.97;;;;;;;;;;4936113;29;20228;-96
2022/01/11 04:06:46;;;;;;;4.93;3.00;;;;;;;;;;4931639;29;20032;-96
2022/01/11 04:09:15;;;;;;;12.65;3.88;;;;;;;;;;4932482;29;20023;-95
2022/01/11 04:11:41;;;;;;;6.10;3.15;;;;;;;;;;4932718;29;20032;-96
2022/01/11 04:14:09;;;;;;;6.22;3.00;;;;;;;;;;4937523;29;20028;-96
2022/01/11 04:16:35;;;;;;;;;;;4.40;85.00;;;;;;4922185;29;20039;-96
2022/01/11 04:19:01;;;;;;;9.45;2.65;;;;;;;;;;4929512;29;20296;-96
2022/01/11 04:21:27;;;;;;;4.07;2.78;;;;;;;;;;4935862;29;20115;-96
2022/01/11 04:23:54;;;;;;;3.85;2.92;;;;;;;;;;4923490;29;20533;-96
2022/01/11 04:26:20;;;;;;;14.57;2.88;;;;;;;;;;4927337;29;20039;-96
2022/01/11 04:28:47;;;;;;;9.93;4.82;;;;;;;;;;4920268;29;20036;-96
2022/01/11 04:31:13;;;;;;;8.15;3.05;;;;;;;;;;4925354;29;20063;-96
2022/01/11 04:33:43;;;;;;;8.20;3.13;;;;;;;;;;4926170;29;20027;-96
2022/01/11 04:36:10;;;;;;;9.27;2.70;;;;;;;;;;4914347;29;20031;-96
2022/01/11 04:38:40;;;;;;;5.05;3.05;;;;;;;;;;4932149;29;20028;-96
2022/01/11 04:41:06;;;;;;;7.60;4.00;;;;;;;;;;4924712;29;20032;-96
2022/01/11 04:43:33;;;;;;;6.03;3.30;;;;;;;;;;4918342;29;20071;-96
2022/01/11 04:45:59;;;;;;;6.85;2.95;;;;;;;;;;4923722;29;20028;-96
2022/01/11 04:48:28;;;;;;;8.82;3.33;;;;;;;;;;4933752;29;20545;-96
2022/01/11 04:50:54;;;;;;;4.85;2.97;;;;;;;;;;4922126;29;20024;-96
2022/01/11 04:53:21;;;;;;;6.30;3.25;;;;;;;;;;4926387;29;20028;-96
2022/01/11 04:55:47;;;;;;;6.15;3.05;;;;;;;;;;4933520;29;20497;-96
2022/01/11 04:58:13;;;;;;;7.10;4.72;;;;;;;;;;4923700;29;20032;-96
2022/01/11 05:00:41;;;;;;;8.35;4.78;;;;;;;;;;4935774;29;20046;-96
2022/01/11 05:03:11;;;;;;;5.57;2.63;;;;;;;;;;4928545;29;20040;-96
2022/01/11 05:05:37;;;;;;;4.63;3.15;;;;;;;;;;4924326;29;20619;-96
2022/01/11 05:08:05;;;;;;;9.70;3.60;;;;;;;;;;4932094;29;20084;-95
2022/01/11 05:10:31;;;;;;;11.93;3.67;;;;;;;;;;4928865;29;20063;-96
2022/01/11 05:12:58;;;;;;;9.38;2.92;;;;;;;;;;4927909;29;20039;-96
2022/01/11 05:15:25;;;;;;;4.28;3.10;;;;;;;;;;4925907;29;20044;-95
2022/01/11 05:17:52;;;;;;;10.70;4.22;;;;;;;;;;4919335;29;20047;-96
2022/01/11 05:20:18;;;;;;;14.15;3.35;;;;;;;;;;4932563;29;20130;-96
2022/01/11 05:22:45;;;;;;;9.15;3.85;;;;;;;;;;4929663;29;20043;-95
2022/01/11 05:25:12;;;;;;;3.80;2.28;;;;;;;;;;4928943;29;20078;-96
2022/01/11 05:27:40;;;;;;;4.40;2.70;;;;;;;;;;4926503;29;20142;-96
2022/01/11 05:30:07;;;;;;;6.70;3.53;;;;;;;;;;4920565;29;20032;-96
2022/01/11 05:32:35;;;;;;;6.95;4.10;;;;;;;;;;4930522;29;20039;-96
2022/01/11 05:35:01;;;;;;;10.48;4.88;;;;;;;;;;4922267;29;20043;-96
2022/01/11 05:37:27;;;;;;;3.75;2.72;;;;;;;;;;4928554;29;20036;-96
2022/01/11 05:39:54;;;;;;;10.93;3.53;;;;;;;;;;4931265;29;20156;-96
2022/01/11 05:42:20;;;;;;;8.85;4.32;;;;;;;;;;4931272;29;20039;-96
2022/01/11 05:44:47;;;;;;;8.00;3.63;;;;;;;;;;4922587;29;20031;-96
2022/01/11 05:47:13;;;;;;;6.90;3.42;;;;;;;;;;4922982;29;20032;-96
2022/01/11 05:49:39;;;;;;;15.75;4.82;;;;;;;;;;4929465;29;20078;-96
2022/01/11 05:52:06;;;;;;;16.13;4.55;;;;;;;;;;4923964;29;20027;-96
2022/01/11 05:54:32;;;;;;;;;;;4.30;84.90;;;;;;4932982;29;20054;-96
2022/01/11 05:56:58;;;;;;;5.68;3.30;;;;;;;;;;4911512;29;19914;-96
2022/01/11 05:59:24;;;;;;;2.80;2.15;;;;;;;;;;4923112;29;20036;-96
2022/01/11 06:01:50;;;;;;;8.48;3.70;;;;;;;;;;4925264;29;20102;-96
2022/01/11 06:04:16;;;;;;;5.72;3.30;;;;;;;;;;4927553;29;20043;-96
2022/01/11 06:06:42;;;;;;;14.93;3.65;;;;;;;;;;4931032;29;20032;-96
2022/01/11 06:09:08;;;;;;;7.17;3.87;;;;;;;;;;4922085;29;20048;-96
2022/01/11 06:11:34;;;;;;;12.25;3.17;;;;;;;;;;4913535;29;20281;-96
2022/01/11 06:14:02;;;;;;;8.18;4.20;;;;;;;;;;4921260;29;20548;-96
2022/01/11 06:16:28;;;;;;;3.85;2.55;;;;;;;;;;4920295;29;20024;-96
2022/01/11 06:18:56;;;;;;;13.38;3.22;;;;;;;;;;4920475;29;20056;-95
2022/01/11 06:21:25;;;;;;;11.77;4.05;;;;;;;;;;4920704;29;20051;-96
2022/01/11 06:23:55;;;;;;;4.50;4.05;;;;;;;;;;4915586;29;20578;-95
2022/01/11 06:26:25;;;;;;;8.32;4.15;;;;;;;;;;4924179;29;20524;-96
2022/01/11 06:32:07;;;;;;;6.57;4.07;;;;;;;;;;5018001;23;20089;-96
2022/01/11 06:34:47;;;;;;;8.07;3.63;;;;;;;;;;4978810;28;20670;-96
2022/01/11 06:37:25;;;;;;;6.45;2.67;;;;;;;;;;4974711;28;20504;-95
2022/01/11 06:39:56;;;;;;;10.20;3.88;;;;;;;;;;4975349;28;20046;-96
2022/01/11 06:42:36;;;;;;;6.78;4.40;;;;;;;;;;4966658;28;20039;-96
2022/01/11 06:45:22;;;;;;;9.30;5.72;;;;;;;;;;4966301;28;20157;-96
2022/01/11 06:48:14;;;;;;;5.68;3.15;;;4.20;85.70;;;;;;4971208;28;20502;-96
2022/01/11 06:53:33;;;;;;;6.00;4.25;;;;;;;;;;4969558;28;20093;-96
2022/01/11 06:56:09;;;;;;;5.88;3.78;;;;;;;;;;4971037;28;20038;-96
2022/01/11 07:01:40;;;;;;;12.07;3.45;;;;;;;;;;5046230;23;20051;-96
2022/01/11 07:04:17;;;;;;;6.40;2.75;;;;;;;;;;4985264;28;20038;-96
2022/01/11 07:06:48;;;;;;;6.40;3.78;;;;;;;;;;4947618;28;20042;-96
2022/01/11 07:09:24;;;;;;;6.93;3.95;;;;;;;;;;4977851;28;20109;-97
2022/01/11 07:12:05;;;;;;;8.95;4.22;;;;;;;;;;4969070;28;20126;-96
2022/01/11 07:15:05;;;;;;;8.15;4.25;;;;;;;;;;4982976;28;20042;-96
2022/01/11 07:20:26;;;;;;;6.25;3.78;;;;;;;;;;4986015;28;20054;-96
2022/01/11 07:29:51;;;;;;;6.63;2.88;;;;;;;;;;5066163;23;20060;-96
2022/01/11 07:32:40;;;;;;;8.57;3.75;;;;;;;;;;5088962;23;20050;-96
2022/01/11 07:35:08;;;;;;;9.57;4.93;;;;;;;;;;4955129;28;20539;-96
2022/01/11 07:37:37;;;;;;;10.23;4.80;;;;;;;;;;4975296;28;20035;-96
2022/01/11 07:40:07;;;;;;;12.82;3.55;;;;;;;;;;4984297;28;20041;-96
2022/01/11 07:42:39;;;;;;;7.97;4.50;;;;;;;;;;4986458;28;20045;-95
2022/01/11 07:45:08;;;;;;;9.40;4.00;;;;;;;;;;4976865;28;20038;-96
2022/01/11 07:47:35;;;;;;;10.45;4.15;;;;;;;;;;4959083;28;20031;-96
2022/01/11 07:50:03;;;;;;;7.88;5.65;;;;;;;;;;4974933;28;20027;-96
2022/01/11 07:52:32;;;;;;;9.82;5.45;;;;;;;;;;4987888;28;20034;-96
2022/01/11 07:55:01;;;;;;;14.80;6.45;;;;;;;;;;4972787;28;20081;-96
2022/01/11 07:57:28;;;;;;;11.48;5.20;;;;;;;;;;4963485;28;20031;-95
2022/01/11 07:59:55;;;;;;;7.50;3.73;;;;;;;;;;4961311;28;20519;-96
2022/01/11 08:02:23;;;;;;;12.80;3.95;;;;;;;;;;4964950;28;20621;-95
2022/01/11 08:04:49;;;;;;;;;;;4.10;84.50;;;;;;4974240;28;20031;-96
2022/01/11 08:07:15;;;;;;;7.50;3.13;;;;;;;;;;4957448;28;19910;-95
2022/01/11 08:09:41;;;;;;;7.88;4.10;;;;;;;;;;4970361;28;20045;-96
2022/01/11 08:12:07;;;;;;;10.15;4.60;;;;;;;;;;4979258;28;20406;-95
2022/01/11 08:14:33;;;;;;;11.80;3.50;;;;;;;;;;4950984;28;20035;-95
2022/01/11 08:16:59;;;;;;;7.22;4.00;;;;;;;;;;4959567;28;20041;-96
2022/01/11 08:19:26;;;;;;;7.10;4.80;;;;;;;;;;4962512;28;20027;-95
2022/01/11 08:21:53;;;;;;;5.93;3.20;;;;;;;;;;4970423;28;20130;-95
2022/01/11 08:24:21;;;;;;;15.00;3.20;;;;;;;;;;4965269;28;20118;-96
2022/01/11 08:26:47;;;;;;;12.05;4.68;;;;;;;;;;4977164;28;20039;-95
2022/01/11 08:29:14;;;;;;;9.52;5.13;;;;;;;;;;4979973;28;20025;-96
2022/01/11 08:31:40;;;;;;;15.98;4.20;;;;;;;;;;4984738;28;20047;-96
2022/01/11 08:34:11;;;;;;;11.13;3.67;;;;;;;;;;4984096;28;20042;-94
2022/01/11 08:36:38;;;;;;;6.85;3.53;;;;;;;;;;4986177;28;20034;-95
2022/01/11 08:39:04;;;;;;;8.80;3.67;;;;;;;;;;4968552;28;20030;-95
2022/01/11 08:41:30;;;;;;;7.95;3.55;;;;;;;;;;4951862;28;20370;-95
2022/01/11 08:43:56;;;;;;;5.75;3.58;;;;;;;;;;4981207;28;20053;-96
2022/01/11 08:46:22;;;;;;;10.68;4.07;;;;;;;;;;4960399;28;20503;-96
2022/01/11 08:48:49;;;;;;;7.97;3.13;;;;;;;;;;4980451;28;20030;-96
2022/01/11 08:51:15;;;;;;;12.93;3.35;;;;;;;;;;4942258;28;20050;-95
2022/01/11 08:54:01;;;;;;;7.78;3.40;;;;;;;;;;4965918;28;20030;-97
2022/01/11 08:56:29;;;;;;;9.40;4.35;;;;;;;;;;4964412;28;20034;-96
2022/01/11 08:58:55;;;;;;;13.30;5.65;;;;;;;;;;4963137;28;20043;-96
2022/01/11 09:01:21;;;;;;;4.20;3.08;;;;;;;;;;4952033;28;20649;-96
2022/01/11 09:03:47;;;;;;;11.48;3.65;;;;;;;;;;4956772;28;20042;-96
2022/01/11 09:06:13;;;;;;;8.57;3.58;;;;;;;;;;4974161;28;20384;-96
2022/01/11 09:08:39;;;;;;;35.95;11.13;;;;;;;;;;4960234;28;20031;-94
2022/01/11 09:11:06;;;;;;;14.18;7.47;;;;;;;;;;4979721;28;20019;-93
2022/01/11 09:13:33;;;;;;;25.52;7.53;;;;;;;;;;4973601;28;20050;-93
2022/01/11 09:15:59;;;;;;;33.35;10.63;;;;;;;;;;4956381;28;20641;-93
2022/01/11 09:18:25;;;;;;;17.33;8.13;;;;;;;;;;4968746;28;20026;-95
2022/01/11 09:20:51;;;;;;;23.88;9.55;;;;;;;;;;4966146;28;20042;-93
2022/01/11 09:23:17;;;;;;;31.35;13.45;;;;;;;;;;4951105;28;20145;-91
2022/01/11 09:25:45;;;;;;;17.40;7.72;;;;;;;;;;4982409;28;20798;-94
2022/01/11 09:28:11;;;;;;;12.18;5.10;;;;;;;;;;4974822;28;20050;-94
2022/01/11 09:30:38;;;;;;;10.52;5.25;;;;;;;;;;4960229;28;20023;-93
2022/01/11 09:33:04;;;;;;;18.08;7.50;;;;;;;;;;4952032;28;21913;-93
2022/01/11 09:35:30;;;;;;;9.60;5.03;;;;;;;;;;4952909;28;20058;-93
2022/01/11 09:37:56;;;;;;;23.23;7.00;;;;;;;;;;4956625;28;20078;-92
2022/01/11 09:40:22;;;;;;;8.90;4.18;;;;;;;;;;4967246;28;20452;-94
2022/01/11 09:42:48;;;;;;;14.30;3.10;;;;;;;;;;4962218;28;20062;-92
2022/01/11 09:45:14;;;;;;;11.77;4.68;;;;;;;;;;4958627;28;20022;-94
2022/01/11 09:47:41;;;;;;;12.00;4.93;;;;;;;;;;4976370;28;20031;-92
2022/01/11 09:50:08;;;;;;;18.83;4.55;;;;;;;;;;4979407;28;20035;-91
2022/01/11 09:52:35;;;;;;;9.10;3.83;;;;;;;;;;4971940;28;20035;-92
2022/01/11 09:55:01;;;;;;;10.18;5.38;;;;;;;;;;4978278;28;20094;-92
2022/01/11 09:57:27;;;;;;;7.43;3.47;;;;;;;;;;4963413;28;20516;-92
2022/01/11 09:59:53;;;;;;;12.25;3.70;;;;;;;;;;4969418;28;20078;-94
2022/01/11 10:02:19;;;;;;;6.97;3.53;;;;;;;;;;4974724;28;20038;-93
2022/01/11 10:04:46;;;;;;;4.00;3.08;;;;;;;;;;4964221;28;20109;-93
2022/01/11 10:07:13;;;;;;;5.78;3.83;;;;;;;;;;4954254;28;20042;-92
2022/01/11 10:09:44;;;;;;;11.82;5.50;;;;;;;;;;4960722;28;20026;-93
2022/01/11 10:12:12;;;;;;;13.05;4.57;;;;;;;;;;4958768;28;20125;-92
2022/01/11 10:14:38;;;;;;;7.00;3.47;;;;;;;;;;4951726;28;20035;-95
2022/01/11 10:17:08;;;;;;;5.50;3.07;;;;;;;;;;4966252;28;20028;-94
2022/01/11 10:19:36;;;;;;;5.97;3.58;;;7.00;72.70;;;;;;4971088;28;20290;-94
2022/01/11 10:22:08;;;;;;;10.68;4.13;;;;;;;;;;4952334;28;20027;-95
2022/01/11 10:24:42;;;;;;;16.92;3.83;;;;;;;;;;4965604;28;20031;-95
2022/01/11 10:27:30;;;;;;;8.15;4.45;;;6.70;73.00;;;;;;4969515;28;20019;-94
2022/01/11 10:29:56;;;;;;;13.52;4.68;;;;;;;;;;4950357;28;20126;-93
2022/01/11 10:32:31;;;;;;;6.68;2.92;;;6.40;73.40;;;;;;4911614;28;1388415;-94
2022/01/11 10:34:58;;;;;;;8.73;3.40;;;;;;;;;;4946050;28;20054;-93
2022/01/11 10:37:30;;;;;;;7.55;3.42;;;;;;;;;;4962024;28;20034;-95
2022/01/11 10:40:08;;;;;;;8.23;2.65;;;;;;;;;;4954649;28;20035;-97
2022/01/11 10:42:38;;;;;;;7.88;3.35;;;6.30;74.90;;;;;;4974990;28;20038;-96
2022/01/11 10:45:06;;;;;;;4.63;3.05;;;;;;;;;;4965962;28;20061;-95
2022/01/11 10:47:34;;;;;;;6.00;3.15;;;;;;;;;;4976433;28;20497;-94
2022/01/11 10:50:28;;;;;;;6.93;3.65;;;6.40;74.60;;;;;;4955595;28;20035;-94
2022/01/11 10:52:54;;;;;;;11.50;3.65;;;;;;;;;;4960553;28;20160;-93
2022/01/11 10:55:21;;;;;;;8.88;4.70;;;;;;;;;;4979245;28;20503;-95
2022/01/11 10:57:50;;;;;;;5.47;2.88;;;;;;;;;;4958755;28;20034;-95
2022/01/11 11:00:24;;;;;;;9.93;4.00;;;;;;;;;;4972614;28;20043;-96
2022/01/11 11:02:53;;;;;;;12.50;5.45;;;;;;;;;;4970241;28;20134;-95
2022/01/11 11:05:24;;;;;;;12.10;5.80;;;;;;;;;;4956754;28;20117;-96
2022/01/11 11:07:58;;;;;;;18.85;6.50;;;;;;;;;;4962723;28;20026;-95
2022/01/11 11:10:40;;;;;;;18.38;7.78;;;;;;;;;;4985137;28;20033;-96
2022/01/11 11:13:08;;;;;;;14.75;6.28;;;;;;;;;;4973359;28;20038;-95
2022/01/11 11:15:38;;;;;;;16.88;6.63;;;;;;;;;;4956664;28;20045;-96
2022/01/11 11:18:05;;;;;;;7.07;3.72;;;;;;;;;;4967881;28;20161;-96
2022/01/11 11:20:32;;;;;;;29.77;8.65;;;;;;;;;;4957399;28;20105;-95
2022/01/11 11:22:59;;;;;;;18.00;8.00;;;;;;;;;;4965133;28;20063;-95
2022/01/11 11:25:26;;;;;;;15.60;5.22;;;;;;;;;;4971757;28;20102;-94
2022/01/11 11:27:52;;;;;;;9.00;3.67;;;;;;;;;;4979755;28;20038;-94
2022/01/11 11:30:18;;;;;;;9.43;3.67;;;;;;;;;;4963126;28;20127;-95
2022/01/11 11:32:48;;;;;;;4.90;3.65;;;;;;;;;;4982557;28;20529;-93
2022/01/11 11:35:17;;;;;;;3.65;2.60;;;;;;;;;;4966102;28;20038;-94
2022/01/11 11:37:45;;;;;;;11.30;4.22;;;;;;;;;;4961324;28;20030;-93
2022/01/11 11:40:17;;;;;;;15.45;4.18;;;;;;;;;;4956872;28;20042;-95
2022/01/11 11:42:44;;;;;;;6.05;3.00;;;;;;;;;;4963828;28;20034;-95
2022/01/11 11:45:18;;;;;;;11.30;2.97;;;;;;;;;;4948568;28;20039;-94
2022/01/11 11:47:45;;;;;;;6.60;3.15;;;;;;;;;;4949221;28;20035;-95
2022/01/11 11:50:16;;;;;;;8.48;3.38;;;;;;;;;;4989313;28;20031;-94
2022/01/11 11:52:44;;;;;;;9.23;3.97;;;;;;;;;;4948301;28;20174;-95
2022/01/11 11:55:10;;;;;;;6.70;3.30;;;;;;;;;;4984126;28;20077;-95
2022/01/11 11:57:39;;;;;;;6.05;3.42;;;;;;;;;;4978008;28;20046;-95
2022/01/11 12:00:26;;;;;;;5.05;2.60;;;;;;;;;;4974469;28;20113;-96
2022/01/11 12:02:53;;;;;;;4.30;2.67;;;;;;;;;;4976631;28;20050;-95
2022/01/11 12:05:36;;;;;;;6.03;3.85;;;;;;;;;;4950682;28;20496;-96
2022/01/11 12:08:41;;;;;;;8.55;3.90;;;6.60;72.80;;;;;;4975889;28;20035;-94
2022/01/11 12:11:09;;;;;;;7.90;3.75;;;;;;;;;;4960597;28;20022;-96
2022/01/11 12:13:35;;;;;;;4.60;2.60;;;;;;;;;;4987410;28;20038;-95
2022/01/11 12:16:02;;;;;;;8.27;3.50;;;;;;;;;;4959257;28;20038;-96
2022/01/11 12:18:42;;;;;;;6.32;3.42;;;;;;;;;;4952641;28;20093;-95
2022/01/11 12:21:08;;;;;;;5.97;3.10;;;;;;;;;;4975572;28;20023;-96
2022/01/11 12:23:37;;;;;;;2.75;2.03;;;;;;;;;;4965109;28;20093;-95
2022/01/11 12:26:13;;;;;;;6.28;2.75;;;;;;;;;;4983844;28;20849;-95
2022/01/11 12:28:40;;;;;;;15.20;3.43;;;;;;;;;;4982540;28;20038;-95
2022/01/11 12:31:25;;;;;;;5.93;3.65;;;;;;;;;;4958139;28;20059;-94
2022/01/11 12:33:51;;;;;;;10.07;5.20;;;;;;;;;;4961476;28;20027;-96
2022/01/11 12:36:17;;;;;;;8.05;3.38;;;;;;;;;;4979045;28;20770;-95
2022/01/11 12:38:59;;;;;;;3.58;2.50;;;;;;;;;;4975027;28;20027;-95
2022/01/11 12:41:35;;;;;;;9.00;3.72;;;;;;;;;;4984405;28;20500;-96
2022/01/11 12:47:08;;;;;;;;;;;6.60;74.80;;;;;;4893486;29;20057;-96
2022/01/11 12:49:43;;;;;;;5.05;2.42;;;6.60;74.40;;;;;;4901799;29;19955;-94
2022/01/11 12:52:10;;;;;;;4.07;2.80;;;;;;;;;;4903858;29;20041;-94
2022/01/11 12:54:36;;;;;;;8.48;3.80;;;;;;;;;;4906944;29;20116;-93
2022/01/11 12:57:02;;;;;;;4.28;2.80;;;;;;;;;;4896402;29;20564;-92
2022/01/11 12:59:33;;;;;;;4.15;2.47;;;;;;;;;;4908140;29;21345;-93
2022/01/11 13:02:13;;;;;;;6.90;3.08;;;6.60;74.20;;;;;;4920842;29;20124;-92
2022/01/11 13:04:48;;;;;;;5.80;3.03;;;;;;;;;;4899071;29;20032;-93
2022/01/11 13:07:14;;;;;;;8.35;4.40;;;;;;;;;;4903203;29;20067;-94
2022/01/11 13:09:41;;;;;;;4.55;2.85;;;;;;;;;;4896269;29;20498;-94
2022/01/11 13:12:07;;;;;;;5.53;2.27;;;;;;;;;;4910846;29;20083;-95
2022/01/11 13:14:40;;;;;;;5.10;2.70;;;;;;;;;;4900224;29;20100;-95
2022/01/11 13:17:06;;;;;;;7.25;3.83;;;;;;;;;;4901446;29;20033;-94
2022/01/11 13:19:33;;;;;;;5.10;2.90;;;;;;;;;;4919260;29;20029;-95
2022/01/11 13:22:08;;;;;;;9.15;3.58;;;6.30;76.00;;;;;;4898424;28;20062;-94
2022/01/11 13:24:37;;;;;;;8.45;2.28;;;;;;;;;;4956992;28;20028;-94
2022/01/11 13:27:13;;;;;;;4.82;2.65;;;6.40;76.90;;;;;;4949781;28;20059;-94
2022/01/11 13:29:40;;;;;;;6.53;2.47;;;;;;;;;;4977860;28;20484;-95
2022/01/11 13:32:06;;;;;;;5.05;3.08;;;;;;;;;;4969534;28;20054;-94
2022/01/11 13:34:33;;;;;;;5.10;3.15;;;;;;;;;;4983777;28;20033;-94
2022/01/11 13:37:00;;;;;;;6.80;2.72;;;;;;;;;;4969700;28;20129;-93
2022/01/11 13:39:29;;;;;;;12.80;2.63;;;;;;;;;;4949380;28;20035;-93
2022/01/11 13:42:00;;;;;;;4.68;2.67;;;;;;;;;;4979417;28;20087;-95
2022/01/11 13:44:29;;;;;;;5.05;2.72;;;;;;;;;;4964476;28;20022;-94
2022/01/11 13:46:55;;;;;;;5.32;2.97;;;;;;;;;;4978636;28;20023;-94
2022/01/11 13:49:22;;;;;;;6.32;2.85;;;;;;;;;;4953945;28;20034;-95
2022/01/11 13:51:50;;;;;;;5.28;3.00;;;;;;;;;;4962494;28;20116;-93
2022/01/11 13:54:16;;;;;;;;;;;;;;;;;;4956008;28;20129;-95
2022/01/11 13:56:44;;;;;;;6.32;3.85;;;;;;;;;;4974880;28;19945;-94
2022/01/11 13:59:12;;;;;;;7.07;2.97;;;;;;;;;;4985353;28;20061;-94
2022/01/11 14:01:38;;;;;;;4.03;2.28;;;;;;;;;;4976497;28;20081;-94
2022/01/11 14:04:12;;;;;;;6.78;3.58;;;;;;;;;;4975197;28;20027;-94
2022/01/11 14:06:40;;;;;;;6.47;3.70;;;;;;;;;;4981570;28;20484;-94
2022/01/11 14:09:10;;;;;;;8.80;4.15;;;;;;;;;;4974621;28;20113;-93
2022/01/11 14:11:39;;;;;;;13.43;3.95;;;;;;;;;;4960351;28;20030;-93
2022/01/11 14:14:05;;;;;;;5.45;3.20;;;;;;;;;;4968526;28;20049;-93
2022/01/11 14:16:36;;;;;;;6.00;2.58;;;;;;;;;;4958837;28;20038;-93
2022/01/11 14:19:08;;;;;;;10.18;2.88;;;;;;;;;;4973511;28;20034;-95
2022/01/11 14:21:48;;;;;;;4.97;2.88;;;;;;;;;;4980170;28;20060;-94
2022/01/11 14:24:14;;;;;;;11.73;5.45;;;;;;;;;;4969796;28;20488;-95
2022/01/11 14:26:40;;;;;;;4.05;2.50;;;;;;;;;;4967207;28;20512;-95
2022/01/11 14:29:07;;;;;;;15.93;4.18;;;;;;;;;;4967350;28;20023;-96
2022/01/11 14:31:35;;;;;;;;;;;6.70;78.80;;;;;;4979063;28;20042;-94
2022/01/11 14:34:09;;;;;;;7.32;3.35;;;;;;;;;;4963148;28;19918;-93
2022/01/11 14:36:35;;;;;;;8.93;3.58;;;;;;;;;;4975965;28;20059;-96
2022/01/11 14:39:11;;;;;;;9.00;2.97;;;;;;;;;;4971344;28;20038;-94
2022/01/11 14:41:42;;;;;;;4.80;3.35;;;;;;;;;;4972865;28;20037;-94
2022/01/11 14:44:13;;;;;;;5.30;3.05;;;;;;;;;;4956869;28;20043;-95
2022/01/11 14:46:49;;;;;;;9.13;4.25;;;;;;;;;;4975647;28;20030;-94
2022/01/11 14:49:16;;;;;;;9.70;3.63;;;;;;;;;;4974345;28;20089;-96
2022/01/11 14:51:52;;;;;;;8.70;4.68;;;;;;;;;;4959518;28;20026;-95
2022/01/11 14:54:22;;;;;;;9.20;4.28;;;;;;;;;;4969194;28;20599;-93
2022/01/11 14:56:53;;;;;;;8.18;4.13;;;;;;;;;;4952921;28;20042;-94
2022/01/11 14:59:20;;;;;;;8.95;4.35;;;;;;;;;;4981374;28;20089;-95
2022/01/11 15:01:46;;;;;;;6.78;3.35;;;;;;;;;;4962619;28;20031;-95
2022/01/11 15:04:17;;;;;;;7.63;4.38;;;;;;;;;;4978742;28;20027;-93
2022/01/11 15:06:45;;;;;;;6.97;3.28;;;;;;;;;;4983635;28;20034;-94
2022/01/11 15:09:21;;;;;;;10.85;4.40;;;6.10;82.80;;;;;;4959948;28;20031;-96
2022/01/11 15:11:55;;;;;;;6.22;3.28;;;;;;;;;;4972432;28;20027;-94